createdAt,value
2023-11-05T00:00:02.517Z,10.94
2023-11-05T00:01:02.559Z,10.96
2023-11-05T00:02:02.515Z,10.99
2023-11-05T00:03:02.587Z,11.10
2023-11-05T00:04:02.515Z,11.11
2023-11-05T00:05:02.490Z,11.14
2023-11-05T00:06:02.459Z,11.14
2023-11-05T00:07:02.485Z,11.14
2023-11-05T00:08:02.464Z,11.19
2023-11-05T00:09:02.399Z,11.19
2023-11-05T00:10:02.413Z,11.19
2023-11-05T00:11:02.358Z,11.21
2023-11-05T00:12:02.404Z,11.24
2023-11-05T00:13:02.389Z,11.21
2023-11-05T00:14:02.324Z,11.20
2023-11-05T00:15:02.315Z,11.21
2023-11-05T00:16:02.327Z,11.20
2023-11-05T00:17:02.313Z,11.21
2023-11-05T00:18:02.317Z,11.21
2023-11-05T00:19:02.313Z,11.19
2023-11-05T00:20:02.240Z,11.17
2023-11-05T00:21:02.225Z,11.25
2023-11-05T00:22:02.258Z,11.21
2023-11-05T00:23:02.197Z,11.21
2023-11-05T00:24:02.203Z,11.21
2023-11-05T00:25:02.217Z,11.24
2023-11-05T00:26:02.178Z,11.24
2023-11-05T00:27:02.181Z,11.17
2023-11-05T00:28:02.147Z,11.21
2023-11-05T00:29:02.116Z,11.20
2023-11-05T00:30:02.103Z,11.14
2023-11-05T00:31:02.121Z,11.16
2023-11-05T00:32:02.083Z,11.16
2023-11-05T00:33:02.120Z,11.16
2023-11-05T00:34:02.175Z,11.19
2023-11-05T00:35:02.105Z,11.19
2023-11-05T00:36:02.076Z,11.19
2023-11-05T00:37:02.030Z,11.17
2023-11-05T00:38:02.008Z,11.19
2023-11-05T00:39:02.006Z,11.20
2023-11-05T00:40:05.333Z,11.21
2023-11-05T00:41:01.985Z,11.19
2023-11-05T00:42:01.948Z,11.19
2023-11-05T00:43:01.969Z,11.24
2023-11-05T00:44:01.944Z,11.20
2023-11-05T00:45:01.956Z,11.20
2023-11-05T00:46:01.921Z,11.21
2023-11-05T00:47:01.872Z,11.21
2023-11-05T00:48:01.896Z,11.25
2023-11-05T00:49:01.954Z,11.20
2023-11-05T00:50:01.888Z,11.21
2023-11-05T00:51:01.812Z,11.25
2023-11-05T00:52:03.541Z,11.32
2023-11-05T00:53:01.793Z,11.34
2023-11-05T00:54:01.797Z,11.34
2023-11-05T00:55:01.787Z,11.35
2023-11-05T00:56:01.769Z,11.32
2023-11-05T00:57:01.756Z,11.34
2023-11-05T00:58:01.805Z,11.29
2023-11-05T00:59:01.740Z,11.31
2023-11-05T01:00:01.816Z,11.29
2023-11-05T01:01:01.697Z,11.31
2023-11-05T01:02:01.673Z,11.28
2023-11-05T01:03:01.738Z,11.21
2023-11-05T01:04:01.800Z,11.11
2023-11-05T01:05:01.833Z,11.06
2023-11-05T01:06:01.626Z,11.03
2023-11-05T01:07:01.618Z,11.02
2023-11-05T01:08:01.637Z,10.99
2023-11-05T01:09:01.596Z,10.96
2023-11-05T01:10:01.585Z,10.96
2023-11-05T01:11:01.553Z,10.91
2023-11-05T01:12:01.539Z,10.84
2023-11-05T01:13:01.569Z,10.84
2023-11-05T01:14:01.512Z,10.77
2023-11-05T01:15:01.490Z,10.71
2023-11-05T01:16:01.511Z,10.66
2023-11-05T01:17:01.469Z,10.71
2023-11-05T01:18:01.538Z,10.70
2023-11-05T01:19:01.452Z,10.66
2023-11-05T01:20:01.502Z,10.66
2023-11-05T01:21:01.451Z,10.68
2023-11-05T01:22:01.437Z,10.66
2023-11-05T01:23:01.394Z,10.62
2023-11-05T01:24:01.369Z,10.60
2023-11-05T01:25:01.404Z,10.65
2023-11-05T01:26:01.338Z,10.63
2023-11-05T01:27:01.363Z,10.60
2023-11-05T01:28:01.347Z,10.58
2023-11-05T01:29:01.298Z,10.59
2023-11-05T01:30:01.304Z,10.60
2023-11-05T01:31:01.312Z,10.55
2023-11-05T01:32:01.282Z,10.56
2023-11-05T01:33:01.297Z,10.59
2023-11-05T01:34:01.337Z,10.63
2023-11-05T01:35:01.228Z,10.58
2023-11-05T01:36:02.811Z,10.60
2023-11-05T01:37:01.225Z,10.59
2023-11-05T01:38:01.180Z,10.53
2023-11-05T01:39:01.172Z,10.53
2023-11-05T01:40:01.280Z,10.46
2023-11-05T01:41:01.185Z,10.42
2023-11-05T01:42:01.148Z,10.51
2023-11-05T01:43:01.152Z,10.47
2023-11-05T01:44:01.122Z,10.55
2023-11-05T01:45:01.102Z,10.53
2023-11-05T01:46:01.130Z,10.47
2023-11-05T01:47:01.065Z,10.53
2023-11-05T01:48:01.104Z,10.46
2023-11-05T01:49:01.057Z,10.47
2023-11-05T01:50:01.024Z,10.51
2023-11-05T01:51:01.008Z,10.52
2023-11-05T01:52:01.004Z,10.55
2023-11-05T01:53:00.965Z,10.47
2023-11-05T01:54:00.965Z,10.52
2023-11-05T01:55:01.020Z,10.44
2023-11-05T01:56:00.950Z,10.52
2023-11-05T01:57:00.915Z,10.46
2023-11-05T01:58:00.924Z,10.53
2023-11-05T01:59:00.889Z,10.46
2023-11-05T02:00:00.900Z,10.56
2023-11-05T02:01:00.927Z,10.51
2023-11-05T02:02:00.859Z,10.52
2023-11-05T02:03:00.873Z,10.56
2023-11-05T02:04:00.877Z,10.53
2023-11-05T02:05:00.977Z,10.55
2023-11-05T02:06:00.784Z,10.55
2023-11-05T02:07:00.800Z,10.51
2023-11-05T02:08:00.776Z,10.56
2023-11-05T02:09:00.782Z,10.52
2023-11-05T02:10:00.783Z,10.56
2023-11-05T02:11:00.736Z,10.52
2023-11-05T02:12:00.724Z,10.47
2023-11-05T02:13:00.765Z,10.43
2023-11-05T02:14:00.699Z,10.46
2023-11-05T02:15:00.696Z,10.43
2023-11-05T02:16:00.676Z,10.47
2023-11-05T02:17:00.670Z,10.44
2023-11-05T02:18:00.722Z,10.52
2023-11-05T02:19:00.761Z,10.55
2023-11-05T02:20:00.601Z,10.52
2023-11-05T02:21:00.600Z,10.46
2023-11-05T02:22:00.583Z,10.53
2023-11-05T02:23:00.577Z,10.53
2023-11-05T02:24:00.547Z,10.44
2023-11-05T02:25:00.626Z,10.51
2023-11-05T02:26:00.512Z,10.46
2023-11-05T02:27:00.494Z,10.52
2023-11-05T02:28:00.592Z,10.53
2023-11-05T02:29:00.477Z,10.51
2023-11-05T02:30:00.491Z,10.47
2023-11-05T02:31:00.561Z,10.55
2023-11-05T02:32:00.433Z,10.53
2023-11-05T02:33:00.469Z,10.47
2023-11-05T02:34:00.510Z,10.47
2023-11-05T02:35:00.418Z,10.56
2023-11-05T02:36:00.376Z,10.47
2023-11-05T02:37:00.386Z,10.46
2023-11-05T02:38:00.348Z,10.56
2023-11-05T02:39:00.338Z,10.47
2023-11-05T02:40:00.326Z,10.55
2023-11-05T02:41:00.306Z,10.58
2023-11-05T02:42:00.324Z,10.47
2023-11-05T02:43:00.280Z,10.51
2023-11-05T02:44:00.267Z,10.47
2023-11-05T02:45:00.248Z,10.53
2023-11-05T02:46:00.254Z,10.47
2023-11-05T02:47:00.258Z,10.53
2023-11-05T02:48:00.313Z,10.43
2023-11-05T02:49:00.238Z,10.47
2023-11-05T02:50:00.190Z,10.52
2023-11-05T02:51:00.190Z,10.53
2023-11-05T02:52:00.162Z,10.52
2023-11-05T02:53:00.143Z,10.51
2023-11-05T02:54:00.167Z,10.51
2023-11-05T02:55:00.135Z,10.53
2023-11-05T02:56:00.121Z,10.56
2023-11-05T02:57:00.106Z,10.56
2023-11-05T02:58:00.078Z,10.63
2023-11-05T02:59:00.069Z,10.65
2023-11-05T03:00:00.103Z,10.59
2023-11-05T03:01:00.071Z,10.56
2023-11-05T03:02:00.024Z,10.56
2023-11-05T03:03:00.145Z,10.55
2023-11-05T03:03:59.999Z,10.60
2023-11-05T03:05:00.073Z,10.60
2023-11-05T03:05:59.972Z,10.56
2023-11-05T03:06:59.960Z,10.55
2023-11-05T03:07:59.932Z,10.55
2023-11-05T03:08:59.950Z,10.58
2023-11-05T03:09:59.945Z,10.59
2023-11-05T03:10:59.951Z,10.58
2023-11-05T03:11:59.886Z,10.60
2023-11-05T03:12:59.912Z,10.60
2023-11-05T03:13:59.884Z,10.60
2023-11-05T03:14:59.874Z,10.70
2023-11-05T03:15:59.895Z,10.73
2023-11-05T03:16:59.816Z,10.65
2023-11-05T03:17:59.875Z,10.65
2023-11-05T03:18:59.804Z,10.68
2023-11-05T03:19:59.784Z,10.71
2023-11-05T03:20:59.764Z,10.80
2023-11-05T03:21:59.756Z,10.71
2023-11-05T03:22:59.742Z,10.74
2023-11-05T03:23:59.733Z,10.81
2023-11-05T03:24:59.711Z,10.81
2023-11-05T03:25:59.707Z,10.70
2023-11-05T03:26:59.688Z,10.80
2023-11-05T03:27:59.707Z,10.70
2023-11-05T03:28:59.684Z,10.74
2023-11-05T03:29:59.654Z,10.71
2023-11-05T03:30:59.670Z,10.70
2023-11-05T03:31:59.606Z,10.71
2023-11-05T03:32:59.730Z,10.70
2023-11-05T03:33:59.655Z,10.66
2023-11-05T03:34:59.599Z,10.65
2023-11-05T03:35:59.555Z,10.70
2023-11-05T03:36:59.575Z,10.66
2023-11-05T03:37:59.566Z,10.76
2023-11-05T03:38:59.532Z,10.70
2023-11-05T03:39:59.515Z,10.71
2023-11-05T03:40:59.492Z,10.71
2023-11-05T03:41:59.488Z,10.73
2023-11-05T03:42:59.487Z,10.74
2023-11-05T03:43:59.460Z,10.74
2023-11-05T03:44:59.526Z,10.73
2023-11-05T03:45:59.458Z,10.73
2023-11-05T03:46:59.461Z,10.73
2023-11-05T03:47:59.490Z,10.74
2023-11-05T03:48:59.455Z,10.71
2023-11-05T03:49:59.387Z,10.73
2023-11-05T03:50:59.358Z,10.71
2023-11-05T03:51:59.352Z,10.73
2023-11-05T03:52:59.365Z,10.76
2023-11-05T03:53:59.467Z,10.76
2023-11-05T03:54:59.298Z,10.76
2023-11-05T03:55:59.410Z,10.71
2023-11-05T03:56:59.298Z,10.70
2023-11-05T03:57:59.259Z,10.78
2023-11-05T03:58:59.247Z,10.71
2023-11-05T03:59:59.221Z,10.73
2023-11-05T04:00:59.260Z,10.74
2023-11-05T04:01:59.213Z,10.73
2023-11-05T04:02:59.244Z,10.73
2023-11-05T04:03:59.183Z,10.74
2023-11-05T04:04:59.218Z,10.74
2023-11-05T04:05:59.166Z,10.77
2023-11-05T04:06:59.140Z,10.84
2023-11-05T04:07:59.148Z,10.78
2023-11-05T04:08:59.109Z,10.78
2023-11-05T04:09:59.108Z,10.74
2023-11-05T04:10:59.101Z,10.73
2023-11-05T04:11:59.069Z,10.70
2023-11-05T04:12:59.047Z,10.70
2023-11-05T04:13:59.046Z,10.68
2023-11-05T04:14:59.056Z,10.74
2023-11-05T04:15:59.006Z,10.74
2023-11-05T04:16:59.018Z,10.66
2023-11-05T04:17:59.016Z,10.71
2023-11-05T04:18:58.983Z,10.68
2023-11-05T04:19:58.978Z,10.68
2023-11-05T04:20:58.970Z,10.68
2023-11-05T04:21:58.931Z,10.71
2023-11-05T04:22:58.963Z,10.73
2023-11-05T04:23:58.927Z,10.77
2023-11-05T04:24:58.911Z,10.77
2023-11-05T04:25:58.868Z,10.86
2023-11-05T04:26:58.884Z,10.81
2023-11-05T04:27:58.850Z,10.81
2023-11-05T04:28:58.875Z,10.89
2023-11-05T04:29:58.856Z,10.89
2023-11-05T04:30:58.826Z,10.86
2023-11-05T04:31:58.836Z,10.81
2023-11-05T04:32:58.884Z,10.81
2023-11-05T04:33:58.810Z,10.91
2023-11-05T04:34:58.889Z,10.92
2023-11-05T04:35:58.732Z,10.88
2023-11-05T04:36:58.733Z,10.81
2023-11-05T04:37:58.763Z,10.83
2023-11-05T04:38:58.712Z,10.83
2023-11-05T04:39:58.686Z,10.83
2023-11-05T04:40:58.672Z,10.86
2023-11-05T04:41:58.646Z,10.92
2023-11-05T04:42:58.672Z,10.84
2023-11-05T04:43:58.612Z,10.86
2023-11-05T04:44:58.612Z,10.84
2023-11-05T04:45:58.606Z,10.84
2023-11-05T04:46:58.616Z,10.88
2023-11-05T04:47:58.653Z,10.89
2023-11-05T04:48:58.814Z,10.91
2023-11-05T04:49:58.629Z,10.92
2023-11-05T04:50:58.529Z,10.89
2023-11-05T04:51:58.553Z,10.91
2023-11-05T04:52:58.538Z,11.01
2023-11-05T04:53:58.544Z,10.96
2023-11-05T04:54:58.498Z,10.94
2023-11-05T04:55:58.456Z,10.94
2023-11-05T04:56:58.464Z,10.94
2023-11-05T04:57:58.421Z,10.91
2023-11-05T04:58:58.438Z,10.91
2023-11-05T04:59:58.413Z,10.91
2023-11-05T05:00:58.406Z,10.94
2023-11-05T05:01:58.392Z,10.95
2023-11-05T05:02:58.447Z,10.92
2023-11-05T05:03:58.479Z,10.96
2023-11-05T05:04:58.548Z,10.95
2023-11-05T05:05:58.491Z,10.95
2023-11-05T05:06:58.381Z,10.92
2023-11-05T05:08:01.044Z,11.01
2023-11-05T05:08:58.305Z,10.94
2023-11-05T05:09:58.288Z,10.96
2023-11-05T05:10:58.304Z,10.96
2023-11-05T05:11:58.254Z,10.96
2023-11-05T05:12:58.257Z,10.95
2023-11-05T05:13:58.209Z,10.91
2023-11-05T05:14:58.249Z,10.89
2023-11-05T05:15:58.211Z,10.89
2023-11-05T05:16:58.186Z,10.91
2023-11-05T05:17:58.163Z,10.92
2023-11-05T05:18:58.163Z,10.91
2023-11-05T05:19:58.149Z,10.88
2023-11-05T05:20:58.143Z,10.89
2023-11-05T05:21:58.120Z,10.88
2023-11-05T05:22:58.113Z,10.88
2023-11-05T05:23:58.085Z,10.96
2023-11-05T05:24:58.079Z,10.96
2023-11-05T05:25:58.069Z,10.94
2023-11-05T05:26:58.038Z,10.92
2023-11-05T05:27:58.021Z,10.94
2023-11-05T05:28:58.035Z,10.92
2023-11-05T05:29:58.010Z,10.96
2023-11-05T05:30:57.984Z,10.94
2023-11-05T05:31:57.980Z,11.01
2023-11-05T05:32:58.050Z,10.96
2023-11-05T05:33:58.093Z,10.95
2023-11-05T05:34:57.946Z,10.96
2023-11-05T05:35:57.910Z,10.91
2023-11-05T05:36:58.629Z,10.91
2023-11-05T05:37:57.886Z,10.92
2023-11-05T05:38:58.632Z,10.84
2023-11-05T05:39:57.898Z,10.86
2023-11-05T05:40:57.853Z,10.88
2023-11-05T05:41:57.826Z,10.86
2023-11-05T05:42:57.832Z,10.88
2023-11-05T05:43:57.804Z,10.86
2023-11-05T05:44:57.796Z,10.84
2023-11-05T05:45:57.777Z,10.84
2023-11-05T05:46:57.765Z,10.88
2023-11-05T05:47:57.810Z,10.83
2023-11-05T05:48:57.758Z,10.88
2023-11-05T05:49:57.727Z,10.81
2023-11-05T05:50:57.722Z,10.80
2023-11-05T05:51:57.717Z,10.80
2023-11-05T05:52:57.706Z,10.81
2023-11-05T05:53:57.672Z,10.83
2023-11-05T05:54:57.669Z,10.86
2023-11-05T05:55:57.629Z,10.88
2023-11-05T05:56:57.672Z,10.78
2023-11-05T05:57:57.627Z,10.88
2023-11-05T05:58:57.606Z,10.84
2023-11-05T05:59:57.582Z,10.81
2023-11-05T06:00:57.629Z,10.89
2023-11-05T06:01:57.629Z,10.81
2023-11-05T06:02:57.563Z,10.80
2023-11-05T06:03:57.582Z,10.83
2023-11-05T06:04:57.531Z,10.86
2023-11-05T06:05:57.530Z,10.88
2023-11-05T06:06:57.514Z,10.88
2023-11-05T06:07:57.471Z,10.88
2023-11-05T06:08:57.463Z,10.89
2023-11-05T06:09:57.463Z,10.86
2023-11-05T06:10:57.498Z,10.89
2023-11-05T06:11:57.437Z,10.89
2023-11-05T06:12:57.463Z,10.94
2023-11-05T06:13:57.404Z,10.88
2023-11-05T06:15:06.524Z,10.92
2023-11-05T06:15:58.424Z,10.81
2023-11-05T06:16:57.393Z,10.83
2023-11-05T06:17:57.376Z,10.88
2023-11-05T06:18:57.383Z,10.92
2023-11-05T06:19:57.333Z,10.89
2023-11-05T06:20:57.320Z,10.94
2023-11-05T06:21:57.312Z,10.88
2023-11-05T06:22:57.310Z,10.91
2023-11-05T06:23:57.355Z,10.91
2023-11-05T06:24:57.274Z,10.92
2023-11-05T06:25:57.259Z,10.92
2023-11-05T06:26:57.222Z,10.94
2023-11-05T06:27:57.223Z,11.01
2023-11-05T06:28:57.183Z,11.03
2023-11-05T06:29:57.210Z,10.96
2023-11-05T06:30:57.186Z,10.91
2023-11-05T06:31:57.144Z,10.92
2023-11-05T06:32:57.174Z,10.94
2023-11-05T06:33:57.195Z,10.89
2023-11-05T06:34:59.480Z,10.92
2023-11-05T06:35:57.102Z,10.99
2023-11-05T06:36:57.086Z,10.91
2023-11-05T06:37:57.073Z,10.86
2023-11-05T06:38:57.090Z,10.94
2023-11-05T06:39:57.056Z,10.91
2023-11-05T06:40:57.039Z,10.89
2023-11-05T06:41:57.006Z,10.89
2023-11-05T06:42:57.017Z,10.88
2023-11-05T06:43:57.087Z,10.84
2023-11-05T06:44:56.990Z,10.83
2023-11-05T06:45:56.976Z,10.83
2023-11-05T06:46:56.944Z,10.81
2023-11-05T06:47:57.018Z,10.81
2023-11-05T06:48:56.934Z,10.83
2023-11-05T06:49:56.909Z,10.84
2023-11-05T06:50:56.914Z,10.83
2023-11-05T06:51:56.884Z,10.83
2023-11-05T06:52:56.927Z,10.83
2023-11-05T06:53:56.856Z,10.84
2023-11-05T06:54:56.908Z,10.88
2023-11-05T06:55:56.848Z,10.88
2023-11-05T06:56:56.810Z,10.88
2023-11-05T06:57:56.838Z,10.91
2023-11-05T06:58:56.792Z,10.95
2023-11-05T06:59:56.770Z,10.92
2023-11-05T07:00:56.765Z,10.92
2023-11-05T07:01:56.777Z,10.98
2023-11-05T07:02:56.823Z,10.96
2023-11-05T07:03:56.773Z,10.96
2023-11-05T07:04:56.746Z,10.94
2023-11-05T07:05:56.691Z,10.91
2023-11-05T07:06:56.695Z,10.99
2023-11-05T07:07:56.716Z,10.95
2023-11-05T07:08:56.654Z,10.96
2023-11-05T07:09:56.651Z,11.02
2023-11-05T07:10:56.746Z,10.92
2023-11-05T07:11:56.630Z,10.92
2023-11-05T07:12:56.624Z,10.89
2023-11-05T07:13:56.588Z,10.94
2023-11-05T07:14:56.580Z,10.94
2023-11-05T07:15:56.593Z,10.95
2023-11-05T07:16:56.535Z,11.02
2023-11-05T07:17:56.576Z,10.95
2023-11-05T07:18:56.540Z,11.03
2023-11-05T07:19:56.517Z,11.01
2023-11-05T07:20:56.533Z,10.98
2023-11-05T07:21:56.478Z,11.01
2023-11-05T07:22:56.480Z,10.91
2023-11-05T07:23:56.457Z,10.89
2023-11-05T07:24:56.459Z,10.92
2023-11-05T07:25:56.445Z,10.94
2023-11-05T07:26:56.396Z,10.91
2023-11-05T07:27:56.389Z,10.89
2023-11-05T07:28:56.384Z,10.89
2023-11-05T07:29:56.402Z,10.88
2023-11-05T07:30:56.338Z,10.88
2023-11-05T07:31:56.346Z,10.84
2023-11-05T07:32:56.350Z,10.92
2023-11-05T07:33:56.367Z,10.84
2023-11-05T07:34:56.345Z,10.86
2023-11-05T07:35:56.277Z,10.89
2023-11-05T07:36:56.258Z,10.89
2023-11-05T07:37:56.262Z,10.91
2023-11-05T07:38:56.247Z,10.96
2023-11-05T07:39:56.239Z,10.94
2023-11-05T07:40:56.209Z,10.92
2023-11-05T07:41:56.201Z,10.92
2023-11-05T07:42:56.177Z,10.94
2023-11-05T07:43:56.204Z,10.94
2023-11-05T07:44:56.162Z,10.91
2023-11-05T07:45:56.155Z,10.98
2023-11-05T07:46:56.200Z,10.89
2023-11-05T07:47:56.201Z,10.88
2023-11-05T07:48:56.125Z,10.91
2023-11-05T07:49:56.148Z,10.89
2023-11-05T07:50:56.073Z,10.91
2023-11-05T07:51:56.086Z,10.94
2023-11-05T07:52:56.108Z,10.95
2023-11-05T07:53:56.054Z,10.94
2023-11-05T07:54:56.020Z,10.96
2023-11-05T07:55:56.034Z,10.96
2023-11-05T07:56:56.014Z,10.98
2023-11-05T07:57:56.005Z,10.96
2023-11-05T07:58:55.990Z,10.99
2023-11-05T07:59:55.996Z,11.06
2023-11-05T08:00:55.932Z,11.01
2023-11-05T08:01:55.930Z,10.98
2023-11-05T08:02:56.012Z,11.01
2023-11-05T08:03:55.954Z,11.11
2023-11-05T08:04:55.950Z,11.07
2023-11-05T08:05:55.887Z,11.02
2023-11-05T08:06:57.385Z,11.01
2023-11-05T08:07:55.869Z,11.02
2023-11-05T08:08:55.825Z,11.11
2023-11-05T08:09:55.807Z,11.09
2023-11-05T08:10:55.819Z,11.09
2023-11-05T08:11:55.811Z,11.10
2023-11-05T08:12:55.770Z,11.02
2023-11-05T08:13:55.762Z,11.11
2023-11-05T08:14:55.742Z,11.14
2023-11-05T08:15:55.744Z,11.07
2023-11-05T08:16:55.738Z,11.06
2023-11-05T08:17:55.798Z,11.16
2023-11-05T08:18:55.689Z,11.10
2023-11-05T08:19:55.714Z,11.10
2023-11-05T08:20:55.687Z,11.19
2023-11-05T08:21:55.723Z,11.07
2023-11-05T08:22:55.695Z,11.09
2023-11-05T08:23:55.634Z,11.20
2023-11-05T08:24:55.649Z,11.13
2023-11-05T08:25:55.670Z,11.16
2023-11-05T08:26:55.583Z,11.13
2023-11-05T08:27:55.584Z,11.14
2023-11-05T08:28:55.690Z,11.19
2023-11-05T08:29:55.566Z,11.17
2023-11-05T08:30:55.568Z,11.16
2023-11-05T08:31:55.556Z,11.21
2023-11-05T08:32:55.589Z,11.28
2023-11-05T08:33:55.513Z,11.24
2023-11-05T08:34:55.507Z,11.35
2023-11-05T08:35:55.516Z,11.32
2023-11-05T08:36:55.456Z,11.34
2023-11-05T08:37:55.512Z,11.39
2023-11-05T08:38:55.447Z,11.46
2023-11-05T08:39:55.480Z,11.57
2023-11-05T08:40:55.430Z,11.57
2023-11-05T08:41:55.392Z,11.53
2023-11-05T08:42:55.372Z,11.59
2023-11-05T08:43:55.418Z,11.54
2023-11-05T08:44:55.351Z,11.65
2023-11-05T08:45:55.342Z,11.68
2023-11-05T08:46:55.327Z,11.62
2023-11-05T08:47:55.365Z,11.59
2023-11-05T08:48:55.383Z,11.56
2023-11-05T08:49:55.303Z,11.59
2023-11-05T08:50:55.321Z,11.68
2023-11-05T08:51:55.269Z,11.71
2023-11-05T08:52:55.257Z,11.61
2023-11-05T08:53:55.281Z,11.59
2023-11-05T08:54:55.214Z,11.62
2023-11-05T08:55:55.229Z,11.70
2023-11-05T08:56:55.221Z,11.83
2023-11-05T08:57:55.191Z,11.85
2023-11-05T08:58:55.198Z,11.80
2023-11-05T08:59:55.146Z,11.90
2023-11-05T09:00:55.127Z,12.02
2023-11-05T09:01:55.150Z,11.99
2023-11-05T09:02:55.156Z,12.09
2023-11-05T09:03:55.122Z,12.05
2023-11-05T09:04:55.181Z,12.06
2023-11-05T09:05:55.078Z,12.09
2023-11-05T09:06:55.043Z,12.13
2023-11-05T09:07:55.071Z,12.09
2023-11-05T09:08:55.013Z,12.08
2023-11-05T09:09:55.000Z,12.09
2023-11-05T09:10:55.012Z,12.16
2023-11-05T09:11:54.985Z,12.24
2023-11-05T09:12:54.988Z,12.29
2023-11-05T09:13:54.988Z,12.31
2023-11-05T09:14:54.981Z,12.31
2023-11-05T09:15:54.934Z,12.34
2023-11-05T09:16:54.941Z,12.39
2023-11-05T09:17:54.967Z,12.44
2023-11-05T09:18:54.967Z,12.48
2023-11-05T09:19:54.937Z,12.59
2023-11-05T09:20:54.864Z,12.45
2023-11-05T09:21:54.877Z,12.48
2023-11-05T09:22:54.869Z,12.45
2023-11-05T09:23:54.838Z,12.44
2023-11-05T09:24:54.796Z,12.39
2023-11-05T09:25:54.880Z,12.49
2023-11-05T09:26:54.808Z,12.45
2023-11-05T09:27:54.760Z,12.56
2023-11-05T09:28:54.770Z,12.46
2023-11-05T09:29:54.725Z,12.46
2023-11-05T09:30:54.740Z,12.39
2023-11-05T09:31:54.786Z,12.39
2023-11-05T09:32:54.766Z,12.37
2023-11-05T09:33:54.698Z,12.31
2023-11-05T09:34:54.708Z,12.34
2023-11-05T09:35:54.670Z,12.26
2023-11-05T09:36:54.627Z,12.30
2023-11-05T09:37:54.692Z,12.37
2023-11-05T09:38:54.606Z,12.37
2023-11-05T09:39:54.601Z,12.29
2023-11-05T09:40:54.610Z,12.37
2023-11-05T09:41:54.573Z,12.37
2023-11-05T09:42:54.556Z,12.20
2023-11-05T09:43:54.612Z,12.13
2023-11-05T09:44:54.525Z,12.09
2023-11-05T09:45:54.546Z,12.04
2023-11-05T09:46:54.534Z,12.04
2023-11-05T09:47:54.594Z,11.89
2023-11-05T09:48:54.552Z,11.97
2023-11-05T09:49:54.480Z,11.85
2023-11-05T09:50:54.482Z,11.83
2023-11-05T09:51:54.439Z,11.74
2023-11-05T09:52:54.459Z,11.67
2023-11-05T09:53:54.479Z,11.68
2023-11-05T09:54:54.407Z,11.64
2023-11-05T09:55:54.414Z,11.59
2023-11-05T09:56:54.362Z,11.62
2023-11-05T09:57:54.364Z,11.65
2023-11-05T09:58:54.384Z,11.64
2023-11-05T09:59:54.391Z,11.62
2023-11-05T10:00:54.322Z,11.59
2023-11-05T10:01:54.352Z,11.62
2023-11-05T10:02:54.329Z,11.67
2023-11-05T10:03:54.351Z,11.70
2023-11-05T10:04:54.329Z,11.71
2023-11-05T10:05:54.249Z,11.68
2023-11-05T10:06:54.227Z,11.65
2023-11-05T10:07:54.285Z,11.56
2023-11-05T10:08:54.212Z,11.59
2023-11-05T10:09:54.185Z,11.65
2023-11-05T10:10:54.182Z,11.61
2023-11-05T10:11:54.170Z,11.57
2023-11-05T10:12:54.146Z,11.65
2023-11-05T10:13:54.200Z,11.65
2023-11-05T10:14:54.127Z,11.68
2023-11-05T10:15:54.113Z,11.67
2023-11-05T10:16:54.132Z,11.75
2023-11-05T10:17:54.154Z,11.68
2023-11-05T10:18:54.116Z,11.67
2023-11-05T10:19:54.125Z,11.67
2023-11-05T10:20:54.050Z,11.64
2023-11-05T10:21:54.050Z,11.65
2023-11-05T10:22:54.120Z,11.72
2023-11-05T10:23:54.056Z,11.74
2023-11-05T10:24:53.988Z,11.74
2023-11-05T10:25:53.967Z,11.75
2023-11-05T10:26:53.974Z,11.75
2023-11-05T10:27:53.958Z,11.82
2023-11-05T10:28:53.970Z,11.90
2023-11-05T10:29:53.914Z,11.86
2023-11-05T10:30:57.139Z,11.87
2023-11-05T10:31:54.938Z,11.93
2023-11-05T10:32:53.905Z,11.85
2023-11-05T10:33:53.900Z,11.86
2023-11-05T10:34:53.914Z,11.87
2023-11-05T10:35:53.836Z,11.80
2023-11-05T10:36:53.844Z,11.80
2023-11-05T10:37:53.871Z,11.80
2023-11-05T10:38:53.794Z,11.82
2023-11-05T10:39:53.809Z,11.78
2023-11-05T10:40:53.817Z,11.78
2023-11-05T10:41:53.785Z,11.83
2023-11-05T10:42:53.781Z,11.85
2023-11-05T10:43:53.785Z,11.87
2023-11-05T10:44:53.726Z,11.85
2023-11-05T10:45:53.739Z,11.89
2023-11-05T10:46:53.774Z,11.87
2023-11-05T10:47:53.753Z,11.90
2023-11-05T10:48:53.741Z,12.06
2023-11-05T10:49:53.655Z,11.97
2023-11-05T10:50:53.656Z,12.01
2023-11-05T10:51:53.685Z,12.02
2023-11-05T10:52:57.166Z,12.01
2023-11-05T10:53:53.686Z,12.02
2023-11-05T10:54:53.576Z,12.04
2023-11-05T10:55:53.707Z,12.06
2023-11-05T10:56:53.556Z,12.09
2023-11-05T10:57:53.530Z,12.19
2023-11-05T10:58:53.564Z,12.21
2023-11-05T10:59:53.582Z,12.21
2023-11-05T11:00:53.555Z,12.20
2023-11-05T11:01:53.562Z,12.20
2023-11-05T11:02:55.594Z,12.29
2023-11-05T11:03:53.657Z,12.31
2023-11-05T11:04:53.594Z,12.38
2023-11-05T11:05:53.490Z,12.37
2023-11-05T11:06:53.419Z,12.30
2023-11-05T11:07:53.437Z,12.26
2023-11-05T11:08:53.391Z,12.21
2023-11-05T11:09:53.399Z,12.20
2023-11-05T11:10:53.405Z,12.23
2023-11-05T11:11:53.352Z,12.19
2023-11-05T11:12:53.365Z,12.21
2023-11-05T11:13:53.415Z,12.24
2023-11-05T11:14:53.338Z,12.34
2023-11-05T11:15:53.295Z,12.23
2023-11-05T11:16:53.306Z,12.33
2023-11-05T11:17:53.302Z,12.16
2023-11-05T11:18:53.472Z,12.19
2023-11-05T11:19:53.293Z,12.15
2023-11-05T11:20:53.234Z,12.13
2023-11-05T11:21:53.212Z,12.13
2023-11-05T11:22:53.236Z,12.05
2023-11-05T11:23:53.356Z,11.99
2023-11-05T11:24:53.194Z,11.93
2023-11-05T11:25:53.182Z,11.90
2023-11-05T11:26:53.146Z,11.85
2023-11-05T11:27:53.150Z,11.93
2023-11-05T11:28:53.153Z,11.85
2023-11-05T11:29:53.165Z,11.82
2023-11-05T11:30:53.091Z,11.86
2023-11-05T11:31:53.110Z,11.82
2023-11-05T11:32:53.109Z,11.83
2023-11-05T11:33:53.046Z,11.80
2023-11-05T11:34:53.069Z,11.80
2023-11-05T11:35:53.019Z,11.74
2023-11-05T11:36:53.032Z,11.71
2023-11-05T11:37:53.023Z,11.70
2023-11-05T11:38:53.000Z,11.65
2023-11-05T11:39:52.973Z,11.70
2023-11-05T11:40:52.959Z,11.75
2023-11-05T11:41:53.007Z,11.68
2023-11-05T11:42:52.950Z,11.65
2023-11-05T11:43:52.983Z,11.80
2023-11-05T11:44:52.904Z,11.68
2023-11-05T11:45:52.931Z,11.68
2023-11-05T11:46:52.945Z,11.71
2023-11-05T11:47:52.879Z,11.75
2023-11-05T11:48:52.869Z,11.75
2023-11-05T11:49:52.858Z,11.77
2023-11-05T11:50:52.837Z,11.77
2023-11-05T11:51:52.830Z,11.75
2023-11-05T11:52:52.897Z,11.77
2023-11-05T11:53:52.794Z,11.78
2023-11-05T11:54:52.764Z,11.87
2023-11-05T11:55:52.868Z,11.77
2023-11-05T11:56:52.756Z,11.80
2023-11-05T11:57:52.713Z,11.78
2023-11-05T11:58:52.726Z,11.82
2023-11-05T11:59:52.696Z,11.93
2023-11-05T12:00:52.700Z,11.85
2023-11-05T12:01:52.719Z,11.85
2023-11-05T12:02:52.734Z,11.87
2023-11-05T12:03:52.693Z,11.93
2023-11-05T12:04:52.711Z,11.89
2023-11-05T12:05:52.648Z,12.01
2023-11-05T12:06:52.629Z,11.96
2023-11-05T12:07:52.607Z,12.02
2023-11-05T12:08:52.586Z,12.11
2023-11-05T12:09:52.582Z,12.09
2023-11-05T12:10:52.663Z,12.08
2023-11-05T12:11:52.607Z,11.96
2023-11-05T12:12:52.518Z,11.94
2023-11-05T12:13:52.539Z,11.97
2023-11-05T12:14:52.521Z,11.94
2023-11-05T12:15:52.503Z,11.96
2023-11-05T12:16:52.575Z,11.97
2023-11-05T12:17:52.485Z,11.96
2023-11-05T12:18:52.439Z,11.90
2023-11-05T12:19:52.495Z,11.89
2023-11-05T12:20:52.416Z,11.86
2023-11-05T12:21:52.380Z,11.87
2023-11-05T12:22:52.419Z,11.86
2023-11-05T12:23:52.390Z,11.93
2023-11-05T12:24:52.395Z,11.97
2023-11-05T12:25:52.348Z,11.94
2023-11-05T12:26:52.348Z,11.90
2023-11-05T12:27:52.311Z,11.90
2023-11-05T12:28:52.369Z,11.93
2023-11-05T12:29:52.279Z,11.89
2023-11-05T12:30:52.270Z,11.87
2023-11-05T12:31:52.311Z,11.87
2023-11-05T12:32:52.302Z,11.87
2023-11-05T12:33:52.272Z,11.93
2023-11-05T12:34:52.275Z,11.94
2023-11-05T12:35:52.203Z,11.94
2023-11-05T12:36:52.193Z,11.89
2023-11-05T12:37:52.246Z,11.87
2023-11-05T12:38:52.195Z,11.87
2023-11-05T12:39:52.159Z,11.86
2023-11-05T12:40:52.188Z,11.86
2023-11-05T12:41:52.153Z,11.87
2023-11-05T12:42:52.169Z,11.82
2023-11-05T12:43:52.095Z,11.83
2023-11-05T12:44:52.090Z,11.85
2023-11-05T12:45:54.156Z,11.86
2023-11-05T12:46:52.194Z,11.86
2023-11-05T12:47:52.090Z,11.90
2023-11-05T12:48:52.054Z,11.85
2023-11-05T12:49:52.048Z,11.90
2023-11-05T12:50:52.041Z,11.83
2023-11-05T12:51:52.016Z,11.89